sensor_id;sensor_type;location;lat;lon;timestamp;P1;durP1;ratioP1;P2;durP2;ratioP2
70385;SDS011;63206;55.650;37.500;2023-02-22T00:00:20;22.02;;;7.28;;
70385;SDS011;63206;55.650;37.500;2023-02-22T00:03:03;21.33;;;6.45;;
70385;SDS011;63206;55.650;37.500;2023-02-22T00:05:32;18.00;;;6.13;;
70385;SDS011;63206;55.650;37.500;2023-02-22T00:08:01;22.30;;;7.90;;
70385;SDS011;63206;55.650;37.500;2023-02-22T00:10:29;20.73;;;6.75;;
70385;SDS011;63206;55.650;37.500;2023-02-22T00:12:55;22.75;;;8.18;;
70385;SDS011;63206;55.650;37.500;2023-02-22T00:15:24;23.55;;;7.95;;
70385;SDS011;63206;55.650;37.500;2023-02-22T00:17:53;30.08;;;8.60;;
70385;SDS011;63206;55.650;37.500;2023-02-22T00:20:24;24.85;;;8.23;;
70385;SDS011;63206;55.650;37.500;2023-02-22T00:22:54;22.45;;;7.45;;
70385;SDS011;63206;55.650;37.500;2023-02-22T00:25:22;24.33;;;7.55;;
70385;SDS011;63206;55.650;37.500;2023-02-22T00:27:51;21.67;;;6.78;;
70385;SDS011;63206;55.650;37.500;2023-02-22T00:30:19;25.98;;;8.30;;
70385;SDS011;63206;55.650;37.500;2023-02-22T00:32:48;20.42;;;7.28;;
70385;SDS011;63206;55.650;37.500;2023-02-22T00:35:17;21.38;;;7.30;;
70385;SDS011;63206;55.650;37.500;2023-02-22T00:37:51;23.10;;;7.15;;
70385;SDS011;63206;55.650;37.500;2023-02-22T00:40:24;18.48;;;5.85;;
70385;SDS011;63206;55.650;37.500;2023-02-22T00:42:51;17.70;;;6.00;;
70385;SDS011;63206;55.650;37.500;2023-02-22T00:45:19;18.88;;;6.00;;
70385;SDS011;63206;55.650;37.500;2023-02-22T00:47:48;19.42;;;6.75;;
70385;SDS011;63206;55.650;37.500;2023-02-22T00:50:17;21.35;;;6.85;;
70385;SDS011;63206;55.650;37.500;2023-02-22T00:52:46;19.67;;;7.35;;
70385;SDS011;63206;55.650;37.500;2023-02-22T00:55:17;20.00;;;5.93;;
70385;SDS011;63206;55.650;37.500;2023-02-22T00:57:43;20.17;;;6.15;;
70385;SDS011;63206;55.650;37.500;2023-02-22T01:00:13;18.17;;;6.85;;
70385;SDS011;63206;55.650;37.500;2023-02-22T01:02:40;17.65;;;6.60;;
70385;SDS011;63206;55.650;37.500;2023-02-22T01:05:11;15.50;;;5.95;;
70385;SDS011;63206;55.650;37.500;2023-02-22T01:07:49;19.35;;;6.28;;
70385;SDS011;63206;55.650;37.500;2023-02-22T01:10:19;31.08;;;7.45;;
70385;SDS011;63206;55.650;37.500;2023-02-22T01:12:53;21.58;;;7.47;;
70385;SDS011;63206;55.650;37.500;2023-02-22T01:15:22;21.38;;;7.07;;
70385;SDS011;63206;55.650;37.500;2023-02-22T01:17:52;22.08;;;7.00;;
70385;SDS011;63206;55.650;37.500;2023-02-22T01:20:23;22.75;;;6.75;;
70385;SDS011;63206;55.650;37.500;2023-02-22T01:22:56;21.30;;;7.28;;
70385;SDS011;63206;55.650;37.500;2023-02-22T01:25:26;22.80;;;7.35;;
70385;SDS011;63206;55.650;37.500;2023-02-22T01:27:56;23.13;;;6.57;;
70385;SDS011;63206;55.650;37.500;2023-02-22T01:30:34;23.27;;;6.53;;
70385;SDS011;63206;55.650;37.500;2023-02-22T01:33:01;25.85;;;7.45;;
70385;SDS011;63206;55.650;37.500;2023-02-22T01:35:37;22.45;;;6.55;;
70385;SDS011;63206;55.650;37.500;2023-02-22T01:38:08;21.63;;;7.07;;
70385;SDS011;63206;55.650;37.500;2023-02-22T01:40:36;19.27;;;7.45;;
70385;SDS011;63206;55.650;37.500;2023-02-22T01:45:53;23.25;;;7.25;;
70385;SDS011;63206;55.650;37.500;2023-02-22T01:50:49;25.50;;;8.45;;
70385;SDS011;63206;55.650;37.500;2023-02-22T01:53:22;25.90;;;7.95;;
70385;SDS011;63206;55.650;37.500;2023-02-22T01:55:58;18.67;;;6.50;;
70385;SDS011;63206;55.650;37.500;2023-02-22T01:58:27;25.15;;;8.25;;
70385;SDS011;63206;55.650;37.500;2023-02-22T02:01:01;19.52;;;7.55;;
70385;SDS011;63206;55.650;37.500;2023-02-22T02:03:28;20.55;;;7.00;;
70385;SDS011;63206;55.650;37.500;2023-02-22T02:06:05;18.40;;;6.45;;
70385;SDS011;63206;55.650;37.500;2023-02-22T02:11:22;17.55;;;6.40;;
70385;SDS011;63206;55.650;37.500;2023-02-22T02:13:53;18.65;;;6.45;;
70385;SDS011;63206;55.650;37.500;2023-02-22T02:16:34;22.55;;;8.60;;
70385;SDS011;63206;55.650;37.500;2023-02-22T02:19:30;22.48;;;7.45;;
70385;SDS011;63206;55.650;37.500;2023-02-22T02:22:18;28.30;;;7.80;;
70385;SDS011;63206;55.650;37.500;2023-02-22T02:27:31;18.55;;;5.85;;
70385;SDS011;63206;55.650;37.500;2023-02-22T02:33:51;20.02;;;7.00;;
70385;SDS011;63206;55.650;37.500;2023-02-22T02:38:40;20.88;;;7.25;;
70385;SDS011;63206;55.650;37.500;2023-02-22T02:51:22;19.27;;;6.82;;
70385;SDS011;63206;55.650;37.500;2023-02-22T02:53:49;18.83;;;6.72;;
70385;SDS011;63206;55.650;37.500;2023-02-22T02:56:19;24.05;;;5.57;;
70385;SDS011;63206;55.650;37.500;2023-02-22T02:58:50;21.52;;;6.57;;
70385;SDS011;63206;55.650;37.500;2023-02-22T03:15:07;19.00;;;7.63;;
70385;SDS011;63206;55.650;37.500;2023-02-22T03:17:50;22.23;;;7.00;;
70385;SDS011;63206;55.650;37.500;2023-02-22T03:22:54;18.17;;;6.72;;
70385;SDS011;63206;55.650;37.500;2023-02-22T03:25:37;22.63;;;7.38;;
70385;SDS011;63206;55.650;37.500;2023-02-22T03:28:06;14.27;;;4.20;;
70385;SDS011;63206;55.650;37.500;2023-02-22T03:30:50;19.50;;;6.15;;
70385;SDS011;63206;55.650;37.500;2023-02-22T03:33:43;22.20;;;7.43;;
70385;SDS011;63206;55.650;37.500;2023-02-22T03:36:18;18.88;;;6.57;;
70385;SDS011;63206;55.650;37.500;2023-02-22T03:38:48;19.92;;;6.72;;
70385;SDS011;63206;55.650;37.500;2023-02-22T03:41:15;18.13;;;7.20;;
70385;SDS011;63206;55.650;37.500;2023-02-22T03:44:04;19.00;;;7.25;;
70385;SDS011;63206;55.650;37.500;2023-02-22T03:46:39;11.20;;;3.90;;
70385;SDS011;63206;55.650;37.500;2023-02-22T03:49:13;19.63;;;7.35;;
70385;SDS011;63206;55.650;37.500;2023-02-22T03:51:45;20.80;;;5.78;;
70385;SDS011;63206;55.650;37.500;2023-02-22T03:54:14;16.15;;;6.45;;
70385;SDS011;63206;55.650;37.500;2023-02-22T03:56:54;16.90;;;6.10;;
70385;SDS011;63206;55.650;37.500;2023-02-22T03:59:24;15.02;;;4.63;;
70385;SDS011;63206;55.650;37.500;2023-02-22T04:01:57;12.88;;;5.57;;
70385;SDS011;63206;55.650;37.500;2023-02-22T04:04:26;25.83;;;7.97;;
70385;SDS011;63206;55.650;37.500;2023-02-22T04:09:21;22.08;;;6.18;;
70385;SDS011;63206;55.650;37.500;2023-02-22T04:11:50;24.23;;;7.38;;
70385;SDS011;63206;55.650;37.500;2023-02-22T04:14:22;12.32;;;4.78;;
70385;SDS011;63206;55.650;37.500;2023-02-22T04:16:54;16.85;;;5.88;;
70385;SDS011;63206;55.650;37.500;2023-02-22T04:19:21;13.82;;;4.95;;
70385;SDS011;63206;55.650;37.500;2023-02-22T04:21:49;9.20;;;4.25;;
70385;SDS011;63206;55.650;37.500;2023-02-22T04:24:21;21.50;;;7.85;;
70385;SDS011;63206;55.650;37.500;2023-02-22T04:26:47;22.30;;;6.93;;
70385;SDS011;63206;55.650;37.500;2023-02-22T04:29:14;17.63;;;6.45;;
70385;SDS011;63206;55.650;37.500;2023-02-22T04:31:44;21.73;;;5.78;;
70385;SDS011;63206;55.650;37.500;2023-02-22T04:34:14;18.65;;;6.35;;
70385;SDS011;63206;55.650;37.500;2023-02-22T04:36:49;20.38;;;7.18;;
70385;SDS011;63206;55.650;37.500;2023-02-22T04:39:18;16.75;;;5.40;;
70385;SDS011;63206;55.650;37.500;2023-02-22T04:41:44;21.20;;;6.47;;
70385;SDS011;63206;55.650;37.500;2023-02-22T04:44:10;19.13;;;7.50;;
70385;SDS011;63206;55.650;37.500;2023-02-22T04:51:33;21.05;;;6.88;;
70385;SDS011;63206;55.650;37.500;2023-02-22T04:54:06;16.73;;;5.65;;
70385;SDS011;63206;55.650;37.500;2023-02-22T04:56:37;18.63;;;6.57;;
70385;SDS011;63206;55.650;37.500;2023-02-22T04:59:09;13.63;;;5.75;;
70385;SDS011;63206;55.650;37.500;2023-02-22T05:01:37;18.23;;;6.22;;
70385;SDS011;63206;55.650;37.500;2023-02-22T05:04:06;19.77;;;7.07;;
70385;SDS011;63206;55.650;37.500;2023-02-22T05:06:35;22.52;;;6.72;;
70385;SDS011;63206;55.650;37.500;2023-02-22T05:09:04;20.35;;;6.63;;
70385;SDS011;63206;55.650;37.500;2023-02-22T05:11:32;22.38;;;6.95;;
70385;SDS011;63206;55.650;37.500;2023-02-22T05:18:53;17.02;;;4.75;;
70385;SDS011;63206;55.650;37.500;2023-02-22T05:21:25;20.42;;;6.55;;
70385;SDS011;63206;55.650;37.500;2023-02-22T05:23:51;22.25;;;7.40;;
70385;SDS011;63206;55.650;37.500;2023-02-22T05:26:20;17.13;;;6.80;;
70385;SDS011;63206;55.650;37.500;2023-02-22T05:33:40;18.95;;;6.85;;
70385;SDS011;63206;55.650;37.500;2023-02-22T05:36:09;13.13;;;5.90;;
70385;SDS011;63206;55.650;37.500;2023-02-22T05:43:32;13.45;;;4.82;;
70385;SDS011;63206;55.650;37.500;2023-02-22T05:46:00;18.45;;;5.40;;
70385;SDS011;63206;55.650;37.500;2023-02-22T05:48:34;18.02;;;6.10;;
70385;SDS011;63206;55.650;37.500;2023-02-22T05:51:06;21.63;;;5.95;;
70385;SDS011;63206;55.650;37.500;2023-02-22T05:53:37;18.17;;;6.13;;
70385;SDS011;63206;55.650;37.500;2023-02-22T05:56:08;18.10;;;6.13;;
70385;SDS011;63206;55.650;37.500;2023-02-22T05:58:39;21.38;;;7.18;;
70385;SDS011;63206;55.650;37.500;2023-02-22T06:01:05;20.98;;;7.57;;
70385;SDS011;63206;55.650;37.500;2023-02-22T06:03:38;19.40;;;5.38;;
70385;SDS011;63206;55.650;37.500;2023-02-22T06:06:04;20.63;;;6.97;;
70385;SDS011;63206;55.650;37.500;2023-02-22T06:08:38;15.40;;;5.90;;
70385;SDS011;63206;55.650;37.500;2023-02-22T06:11:04;18.70;;;6.07;;
70385;SDS011;63206;55.650;37.500;2023-02-22T06:13:38;22.90;;;7.50;;
70385;SDS011;63206;55.650;37.500;2023-02-22T06:16:05;19.45;;;6.97;;
70385;SDS011;63206;55.650;37.500;2023-02-22T06:18:34;17.65;;;6.60;;
70385;SDS011;63206;55.650;37.500;2023-02-22T06:23:28;18.90;;;6.40;;
70385;SDS011;63206;55.650;37.500;2023-02-22T06:25:57;21.08;;;6.75;;
70385;SDS011;63206;55.650;37.500;2023-02-22T06:30:54;20.00;;;6.45;;
70385;SDS011;63206;55.650;37.500;2023-02-22T06:33:29;17.77;;;6.43;;
70385;SDS011;63206;55.650;37.500;2023-02-22T06:36:00;17.83;;;5.50;;
70385;SDS011;63206;55.650;37.500;2023-02-22T06:38:28;19.08;;;6.43;;
70385;SDS011;63206;55.650;37.500;2023-02-22T06:40:54;15.40;;;6.38;;
70385;SDS011;63206;55.650;37.500;2023-02-22T06:43:23;16.80;;;5.90;;
70385;SDS011;63206;55.650;37.500;2023-02-22T06:45:55;18.95;;;7.10;;
70385;SDS011;63206;55.650;37.500;2023-02-22T06:48:23;18.98;;;6.43;;
70385;SDS011;63206;55.650;37.500;2023-02-22T06:50:52;18.02;;;6.95;;
70385;SDS011;63206;55.650;37.500;2023-02-22T06:53:21;18.42;;;5.68;;
70385;SDS011;63206;55.650;37.500;2023-02-22T06:55:52;18.42;;;5.95;;
70385;SDS011;63206;55.650;37.500;2023-02-22T06:58:18;17.42;;;5.75;;
70385;SDS011;63206;55.650;37.500;2023-02-22T07:00:49;20.15;;;6.47;;
70385;SDS011;63206;55.650;37.500;2023-02-22T07:03:17;22.13;;;6.50;;
70385;SDS011;63206;55.650;37.500;2023-02-22T07:05:52;22.13;;;7.40;;
70385;SDS011;63206;55.650;37.500;2023-02-22T07:08:25;22.98;;;7.00;;
70385;SDS011;63206;55.650;37.500;2023-02-22T07:10:57;24.90;;;6.90;;
70385;SDS011;63206;55.650;37.500;2023-02-22T07:13:31;20.63;;;7.30;;
70385;SDS011;63206;55.650;37.500;2023-02-22T07:16:02;23.30;;;6.90;;
70385;SDS011;63206;55.650;37.500;2023-02-22T07:18:33;22.13;;;6.85;;
70385;SDS011;63206;55.650;37.500;2023-02-22T07:21:02;18.63;;;5.35;;
70385;SDS011;63206;55.650;37.500;2023-02-22T07:23:30;21.23;;;6.65;;
70385;SDS011;63206;55.650;37.500;2023-02-22T07:26:00;21.02;;;6.55;;
70385;SDS011;63206;55.650;37.500;2023-02-22T07:28:27;21.38;;;7.70;;
70385;SDS011;63206;55.650;37.500;2023-02-22T07:30:56;20.27;;;5.68;;
70385;SDS011;63206;55.650;37.500;2023-02-22T07:33:22;23.52;;;7.60;;
70385;SDS011;63206;55.650;37.500;2023-02-22T07:35:52;21.08;;;7.75;;
70385;SDS011;63206;55.650;37.500;2023-02-22T07:38:21;27.02;;;7.70;;
70385;SDS011;63206;55.650;37.500;2023-02-22T07:40:47;24.65;;;7.28;;
70385;SDS011;63206;55.650;37.500;2023-02-22T07:43:20;23.05;;;7.07;;
70385;SDS011;63206;55.650;37.500;2023-02-22T07:45:52;20.55;;;7.35;;
70385;SDS011;63206;55.650;37.500;2023-02-22T07:48:25;18.88;;;6.65;;
70385;SDS011;63206;55.650;37.500;2023-02-22T07:50:54;21.98;;;6.72;;
70385;SDS011;63206;55.650;37.500;2023-02-22T07:53:29;22.30;;;7.13;;
70385;SDS011;63206;55.650;37.500;2023-02-22T07:56:04;19.52;;;6.05;;
70385;SDS011;63206;55.650;37.500;2023-02-22T07:58:38;20.25;;;6.05;;
70385;SDS011;63206;55.650;37.500;2023-02-22T08:01:10;20.20;;;6.90;;
70385;SDS011;63206;55.650;37.500;2023-02-22T08:03:39;20.20;;;7.70;;
70385;SDS011;63206;55.650;37.500;2023-02-22T08:06:13;19.15;;;7.38;;
70385;SDS011;63206;55.650;37.500;2023-02-22T08:08:41;25.65;;;8.65;;
70385;SDS011;63206;55.650;37.500;2023-02-22T08:11:10;18.05;;;6.03;;
70385;SDS011;63206;55.650;37.500;2023-02-22T08:13:39;22.75;;;8.63;;
70385;SDS011;63206;55.650;37.500;2023-02-22T08:16:05;21.85;;;7.45;;
70385;SDS011;63206;55.650;37.500;2023-02-22T08:18:35;20.65;;;7.70;;
70385;SDS011;63206;55.650;37.500;2023-02-22T08:21:05;23.98;;;8.30;;
70385;SDS011;63206;55.650;37.500;2023-02-22T08:23:31;27.90;;;8.27;;
70385;SDS011;63206;55.650;37.500;2023-02-22T08:26:03;24.40;;;7.82;;
70385;SDS011;63206;55.650;37.500;2023-02-22T08:28:31;24.15;;;8.32;;
70385;SDS011;63206;55.650;37.500;2023-02-22T08:31:02;26.77;;;7.55;;
70385;SDS011;63206;55.650;37.500;2023-02-22T08:33:31;20.80;;;7.78;;
70385;SDS011;63206;55.650;37.500;2023-02-22T08:36:06;24.42;;;9.00;;
70385;SDS011;63206;55.650;37.500;2023-02-22T08:38:32;23.80;;;7.88;;
70385;SDS011;63206;55.650;37.500;2023-02-22T08:41:01;23.27;;;8.10;;
70385;SDS011;63206;55.650;37.500;2023-02-22T08:43:30;24.40;;;7.93;;
70385;SDS011;63206;55.650;37.500;2023-02-22T08:46:01;21.42;;;7.82;;
70385;SDS011;63206;55.650;37.500;2023-02-22T08:48:27;21.08;;;7.32;;
70385;SDS011;63206;55.650;37.500;2023-02-22T08:51:04;22.90;;;8.15;;
70385;SDS011;63206;55.650;37.500;2023-02-22T08:53:30;22.33;;;6.70;;
70385;SDS011;63206;55.650;37.500;2023-02-22T08:56:00;21.95;;;7.47;;
70385;SDS011;63206;55.650;37.500;2023-02-22T08:58:26;25.38;;;8.77;;
70385;SDS011;63206;55.650;37.500;2023-02-22T09:00:57;23.38;;;8.93;;
70385;SDS011;63206;55.650;37.500;2023-02-22T09:03:24;23.00;;;8.82;;
70385;SDS011;63206;55.650;37.500;2023-02-22T09:05:50;19.85;;;7.93;;
70385;SDS011;63206;55.650;37.500;2023-02-22T09:08:22;25.42;;;7.70;;
70385;SDS011;63206;55.650;37.500;2023-02-22T09:10:50;29.83;;;10.73;;
70385;SDS011;63206;55.650;37.500;2023-02-22T09:13:25;29.42;;;9.18;;
70385;SDS011;63206;55.650;37.500;2023-02-22T09:15:56;24.10;;;8.23;;
70385;SDS011;63206;55.650;37.500;2023-02-22T09:18:27;22.83;;;7.75;;
70385;SDS011;63206;55.650;37.500;2023-02-22T09:20:56;25.13;;;7.95;;
70385;SDS011;63206;55.650;37.500;2023-02-22T09:23:26;25.08;;;8.75;;
70385;SDS011;63206;55.650;37.500;2023-02-22T09:26:01;27.73;;;8.95;;
70385;SDS011;63206;55.650;37.500;2023-02-22T09:28:29;24.45;;;8.77;;
70385;SDS011;63206;55.650;37.500;2023-02-22T09:30:55;21.63;;;8.18;;
70385;SDS011;63206;55.650;37.500;2023-02-22T09:33:24;24.80;;;8.32;;
70385;SDS011;63206;55.650;37.500;2023-02-22T09:35:56;20.75;;;8.55;;
70385;SDS011;63206;55.650;37.500;2023-02-22T09:38:25;22.70;;;8.20;;
70385;SDS011;63206;55.650;37.500;2023-02-22T09:43:40;20.60;;;7.70;;
70385;SDS011;63206;55.650;37.500;2023-02-22T09:46:20;22.02;;;7.95;;
70385;SDS011;63206;55.650;37.500;2023-02-22T09:48:50;19.75;;;7.80;;
70385;SDS011;63206;55.650;37.500;2023-02-22T09:51:20;21.38;;;8.48;;
70385;SDS011;63206;55.650;37.500;2023-02-22T09:53:55;20.38;;;7.55;;
70385;SDS011;63206;55.650;37.500;2023-02-22T09:56:22;24.13;;;8.90;;
70385;SDS011;63206;55.650;37.500;2023-02-22T09:58:59;24.35;;;9.25;;
70385;SDS011;63206;55.650;37.500;2023-02-22T10:01:33;22.55;;;8.75;;
70385;SDS011;63206;55.650;37.500;2023-02-22T10:04:21;23.77;;;8.85;;
70385;SDS011;63206;55.650;37.500;2023-02-22T10:09:41;22.73;;;8.93;;
70385;SDS011;63206;55.650;37.500;2023-02-22T10:12:13;22.67;;;8.32;;
70385;SDS011;63206;55.650;37.500;2023-02-22T10:17:42;20.45;;;8.73;;
70385;SDS011;63206;55.650;37.500;2023-02-22T10:23:29;20.13;;;8.00;;
70385;SDS011;63206;55.650;37.500;2023-02-22T10:28:40;22.27;;;7.32;;
70385;SDS011;63206;55.650;37.500;2023-02-22T10:31:16;22.48;;;7.60;;
70385;SDS011;63206;55.650;37.500;2023-02-22T10:33:47;24.80;;;8.20;;
70385;SDS011;63206;55.650;37.500;2023-02-22T10:36:24;21.63;;;7.90;;
70385;SDS011;63206;55.650;37.500;2023-02-22T10:41:33;19.48;;;6.47;;
70385;SDS011;63206;55.650;37.500;2023-02-22T10:44:07;25.67;;;8.38;;
70385;SDS011;63206;55.650;37.500;2023-02-22T10:46:39;22.63;;;7.70;;
70385;SDS011;63206;55.650;37.500;2023-02-22T10:49:11;21.40;;;7.65;;
70385;SDS011;63206;55.650;37.500;2023-02-22T10:51:48;21.88;;;8.35;;
70385;SDS011;63206;55.650;37.500;2023-02-22T10:54:30;22.90;;;8.20;;
70385;SDS011;63206;55.650;37.500;2023-02-22T10:57:05;23.35;;;7.38;;
70385;SDS011;63206;55.650;37.500;2023-02-22T10:59:35;24.00;;;8.13;;
70385;SDS011;63206;55.650;37.500;2023-02-22T11:02:17;20.65;;;8.15;;
70385;SDS011;63206;55.650;37.500;2023-02-22T11:04:53;23.90;;;8.30;;
70385;SDS011;63206;55.650;37.500;2023-02-22T11:17:27;22.45;;;7.15;;
70385;SDS011;63206;55.650;37.500;2023-02-22T11:20:01;20.65;;;8.15;;
70385;SDS011;63206;55.650;37.500;2023-02-22T11:22:37;22.17;;;7.25;;
70385;SDS011;63206;55.650;37.500;2023-02-22T11:27:46;21.75;;;7.70;;
70385;SDS011;63206;55.650;37.500;2023-02-22T11:32:51;22.50;;;8.13;;
70385;SDS011;63206;55.650;37.500;2023-02-22T11:38:14;21.30;;;8.15;;
70385;SDS011;63206;55.650;37.500;2023-02-22T11:40:48;21.60;;;8.35;;
70385;SDS011;63206;55.650;37.500;2023-02-22T11:43:36;19.88;;;6.75;;
70385;SDS011;63206;55.650;37.500;2023-02-22T11:46:24;24.73;;;8.10;;
70385;SDS011;63206;55.650;37.500;2023-02-22T11:56:58;20.08;;;6.80;;
70385;SDS011;63206;55.650;37.500;2023-02-22T11:59:46;19.52;;;6.70;;
70385;SDS011;63206;55.650;37.500;2023-02-22T12:05:14;20.02;;;6.55;;
70385;SDS011;63206;55.650;37.500;2023-02-22T12:07:59;18.95;;;7.25;;
70385;SDS011;63206;55.650;37.500;2023-02-22T12:15:30;18.33;;;6.93;;
70385;SDS011;63206;55.650;37.500;2023-02-22T12:21:16;19.00;;;6.75;;
70385;SDS011;63206;55.650;37.500;2023-02-22T12:24:04;16.55;;;5.97;;
70385;SDS011;63206;55.650;37.500;2023-02-22T12:26:40;18.67;;;6.13;;
70385;SDS011;63206;55.650;37.500;2023-02-22T12:29:32;18.88;;;6.38;;
70385;SDS011;63206;55.650;37.500;2023-02-22T12:34:49;17.38;;;5.78;;
70385;SDS011;63206;55.650;37.500;2023-02-22T12:37:21;18.13;;;6.38;;
70385;SDS011;63206;55.650;37.500;2023-02-22T12:42:29;22.45;;;6.65;;
70385;SDS011;63206;55.650;37.500;2023-02-22T12:45:10;17.15;;;6.72;;
70385;SDS011;63206;55.650;37.500;2023-02-22T12:47:43;17.02;;;6.15;;
70385;SDS011;63206;55.650;37.500;2023-02-22T12:50:22;21.85;;;6.95;;
70385;SDS011;63206;55.650;37.500;2023-02-22T12:52:53;19.55;;;6.65;;
70385;SDS011;63206;55.650;37.500;2023-02-22T13:02:59;21.63;;;6.43;;
70385;SDS011;63206;55.650;37.500;2023-02-22T13:05:25;20.52;;;6.68;;
70385;SDS011;63206;55.650;37.500;2023-02-22T13:13:25;16.73;;;6.55;;
70385;SDS011;63206;55.650;37.500;2023-02-22T13:16:02;20.50;;;6.35;;
70385;SDS011;63206;55.650;37.500;2023-02-22T13:21:03;24.08;;;6.90;;
70385;SDS011;63206;55.650;37.500;2023-02-22T13:26:08;17.08;;;5.97;;
70385;SDS011;63206;55.650;37.500;2023-02-22T13:34:04;21.60;;;7.68;;
70385;SDS011;63206;55.650;37.500;2023-02-22T13:44:53;20.73;;;6.70;;
70385;SDS011;63206;55.650;37.500;2023-02-22T13:52:45;16.83;;;5.25;;
70385;SDS011;63206;55.650;37.500;2023-02-22T13:55:14;19.35;;;6.10;;
70385;SDS011;63206;55.650;37.500;2023-02-22T13:57:48;16.02;;;5.55;;
70385;SDS011;63206;55.650;37.500;2023-02-22T14:00:36;16.55;;;6.72;;
70385;SDS011;63206;55.650;37.500;2023-02-22T14:05:50;18.55;;;5.80;;
70385;SDS011;63206;55.650;37.500;2023-02-22T14:10:58;16.33;;;6.10;;
70385;SDS011;63206;55.650;37.500;2023-02-22T14:13:28;16.73;;;5.75;;
70385;SDS011;63206;55.650;37.500;2023-02-22T14:16:15;18.60;;;6.30;;
70385;SDS011;63206;55.650;37.500;2023-02-22T14:18:47;14.90;;;5.47;;
70385;SDS011;63206;55.650;37.500;2023-02-22T14:21:25;18.92;;;5.95;;
70385;SDS011;63206;55.650;37.500;2023-02-22T14:23:51;17.02;;;5.50;;
70385;SDS011;63206;55.650;37.500;2023-02-22T14:31:31;16.67;;;5.55;;
70385;SDS011;63206;55.650;37.500;2023-02-22T14:34:10;16.02;;;4.90;;
70385;SDS011;63206;55.650;37.500;2023-02-22T14:39:17;18.52;;;6.15;;
70385;SDS011;63206;55.650;37.500;2023-02-22T14:41:50;17.00;;;5.65;;
70385;SDS011;63206;55.650;37.500;2023-02-22T14:44:23;13.73;;;5.40;;
70385;SDS011;63206;55.650;37.500;2023-02-22T14:46:53;17.55;;;6.13;;
70385;SDS011;63206;55.650;37.500;2023-02-22T14:49:21;20.33;;;6.63;;
70385;SDS011;63206;55.650;37.500;2023-02-22T14:51:49;13.43;;;5.20;;
70385;SDS011;63206;55.650;37.500;2023-02-22T14:54:35;17.25;;;6.20;;
70385;SDS011;63206;55.650;37.500;2023-02-22T14:57:22;18.20;;;5.55;;
70385;SDS011;63206;55.650;37.500;2023-02-22T15:02:17;17.90;;;5.25;;
70385;SDS011;63206;55.650;37.500;2023-02-22T15:04:49;15.00;;;5.68;;
70385;SDS011;63206;55.650;37.500;2023-02-22T15:07:33;13.82;;;5.13;;
70385;SDS011;63206;55.650;37.500;2023-02-22T15:10:13;15.57;;;5.22;;
70385;SDS011;63206;55.650;37.500;2023-02-22T15:13:12;16.13;;;5.32;;
70385;SDS011;63206;55.650;37.500;2023-02-22T15:15:42;12.82;;;4.72;;
70385;SDS011;63206;55.650;37.500;2023-02-22T15:18:14;13.98;;;4.68;;
70385;SDS011;63206;55.650;37.500;2023-02-22T15:20:44;16.77;;;5.10;;
70385;SDS011;63206;55.650;37.500;2023-02-22T15:23:37;19.23;;;5.75;;
70385;SDS011;63206;55.650;37.500;2023-02-22T15:26:52;13.63;;;4.50;;
70385;SDS011;63206;55.650;37.500;2023-02-22T15:28:54;17.27;;;5.15;;
70385;SDS011;63206;55.650;37.500;2023-02-22T15:31:29;21.42;;;5.50;;
70385;SDS011;63206;55.650;37.500;2023-02-22T15:36:57;12.85;;;3.00;;
70385;SDS011;63206;55.650;37.500;2023-02-22T15:39:34;20.27;;;6.53;;
70385;SDS011;63206;55.650;37.500;2023-02-22T15:42:17;17.35;;;5.60;;
70385;SDS011;63206;55.650;37.500;2023-02-22T15:44:51;18.05;;;5.43;;
70385;SDS011;63206;55.650;37.500;2023-02-22T15:47:25;16.92;;;5.63;;
70385;SDS011;63206;55.650;37.500;2023-02-22T15:50:15;17.40;;;5.65;;
70385;SDS011;63206;55.650;37.500;2023-02-22T15:52:58;24.98;;;5.95;;
70385;SDS011;63206;55.650;37.500;2023-02-22T15:55:28;16.73;;;5.60;;
70385;SDS011;63206;55.650;37.500;2023-02-22T15:57:59;13.85;;;4.97;;
70385;SDS011;63206;55.650;37.500;2023-02-22T16:00:33;18.92;;;5.75;;
70385;SDS011;63206;55.650;37.500;2023-02-22T16:03:04;15.35;;;5.57;;
70385;SDS011;63206;55.650;37.500;2023-02-22T16:05:38;15.82;;;5.15;;
70385;SDS011;63206;55.650;37.500;2023-02-22T16:08:12;17.67;;;6.20;;
70385;SDS011;63206;55.650;37.500;2023-02-22T16:10:56;18.58;;;5.80;;
70385;SDS011;63206;55.650;37.500;2023-02-22T16:13:29;16.73;;;5.43;;
70385;SDS011;63206;55.650;37.500;2023-02-22T16:16:03;20.20;;;6.05;;
70385;SDS011;63206;55.650;37.500;2023-02-22T16:18:33;17.75;;;5.70;;
70385;SDS011;63206;55.650;37.500;2023-02-22T16:21:09;17.98;;;6.57;;
70385;SDS011;63206;55.650;37.500;2023-02-22T16:23:57;14.90;;;4.60;;
70385;SDS011;63206;55.650;37.500;2023-02-22T16:26:27;16.10;;;5.60;;
70385;SDS011;63206;55.650;37.500;2023-02-22T16:29:03;17.50;;;5.80;;
70385;SDS011;63206;55.650;37.500;2023-02-22T16:31:34;13.73;;;5.05;;
70385;SDS011;63206;55.650;37.500;2023-02-22T16:34:02;20.38;;;6.38;;
70385;SDS011;63206;55.650;37.500;2023-02-22T16:39:06;19.63;;;5.57;;
70385;SDS011;63206;55.650;37.500;2023-02-22T16:41:33;14.38;;;5.00;;
70385;SDS011;63206;55.650;37.500;2023-02-22T16:43:59;18.05;;;6.10;;
70385;SDS011;63206;55.650;37.500;2023-02-22T16:46:25;15.73;;;5.85;;
70385;SDS011;63206;55.650;37.500;2023-02-22T16:48:51;16.55;;;5.63;;
70385;SDS011;63206;55.650;37.500;2023-02-22T16:51:26;22.00;;;5.95;;
70385;SDS011;63206;55.650;37.500;2023-02-22T16:53:52;16.95;;;5.32;;
70385;SDS011;63206;55.650;37.500;2023-02-22T16:56:19;17.83;;;6.22;;
70385;SDS011;63206;55.650;37.500;2023-02-22T16:58:46;14.77;;;5.78;;
70385;SDS011;63206;55.650;37.500;2023-02-22T17:01:15;14.88;;;6.38;;
70385;SDS011;63206;55.650;37.500;2023-02-22T17:03:41;17.05;;;5.25;;
70385;SDS011;63206;55.650;37.500;2023-02-22T17:06:07;13.65;;;5.30;;
70385;SDS011;63206;55.650;37.500;2023-02-22T17:08:38;18.15;;;6.28;;
70385;SDS011;63206;55.650;37.500;2023-02-22T17:11:04;22.08;;;6.20;;
70385;SDS011;63206;55.650;37.500;2023-02-22T17:13:31;14.20;;;5.15;;
70385;SDS011;63206;55.650;37.500;2023-02-22T17:16:00;18.02;;;5.57;;
70385;SDS011;63206;55.650;37.500;2023-02-22T17:18:26;13.77;;;4.95;;
70385;SDS011;63206;55.650;37.500;2023-02-22T17:20:53;17.30;;;5.53;;
70385;SDS011;63206;55.650;37.500;2023-02-22T17:23:25;16.23;;;5.65;;
70385;SDS011;63206;55.650;37.500;2023-02-22T17:25:53;17.40;;;5.47;;
70385;SDS011;63206;55.650;37.500;2023-02-22T17:28:22;20.90;;;6.07;;
70385;SDS011;63206;55.650;37.500;2023-02-22T17:30:49;17.33;;;5.75;;
70385;SDS011;63206;55.650;37.500;2023-02-22T17:33:22;16.40;;;5.72;;
70385;SDS011;63206;55.650;37.500;2023-02-22T17:35:54;16.98;;;5.95;;
70385;SDS011;63206;55.650;37.500;2023-02-22T17:38:28;19.25;;;6.43;;
70385;SDS011;63206;55.650;37.500;2023-02-22T17:40:55;20.77;;;6.00;;
70385;SDS011;63206;55.650;37.500;2023-02-22T17:43:25;16.50;;;5.57;;
70385;SDS011;63206;55.650;37.500;2023-02-22T17:45:57;13.98;;;5.40;;
70385;SDS011;63206;55.650;37.500;2023-02-22T17:48:23;21.00;;;6.38;;
70385;SDS011;63206;55.650;37.500;2023-02-22T17:50:54;14.25;;;5.80;;
70385;SDS011;63206;55.650;37.500;2023-02-22T17:53:23;18.85;;;5.25;;
70385;SDS011;63206;55.650;37.500;2023-02-22T17:55:50;19.13;;;5.55;;